Search for airport 
image banner adimage banner ad
image banner ad

SJTW - Centauro Heliport

Located in Igarassu, Brazil

ICAO - SJTW, IATA -

Data provided by Airmate  

General information

Coordinates: S29°53'22" W57°8'28"
Elevation is 259 feet MSL.
Magnetic variation is -13° East
View others Airports in Rio Grande do Sul

Operational data

Open for public use
Current time UTC:
Current local time:
Weather at : SBUG - Rubem Berta ( 15 km )
TAF: TAF SBUG 020900Z 0212/0224 07010KT 9999 SCT025 FEW030TCU TX28/0218Z TN22/0223Z PROB40 0215/0218 08010KT 7000 TSRA SCT024 FEW033CB BECMG 0219/0221 06004KT 8000 DZ BKN013 RMK PAY
View NOTAMs / SUP AIP / TFR affecting this airport [VIEW]
Communications frequencies: [VIEW]

Runways:

RWY identifierQFULength (ft)Width (ft)SurfaceLDA (ft)
12126365GRASS
30126365GRASS

Airport contact information

Address: Igarassu Brazil

Satellite view of SJTW